createdAt,value
2018-12-17T00:02:10.374Z,3.02
2018-12-17T00:04:41.244Z,3.05
2018-12-17T00:07:12.254Z,3.20
2018-12-17T00:09:42.786Z,3.28
2018-12-17T00:12:16.743Z,3.37
2018-12-17T00:14:46.465Z,3.28
2018-12-17T00:17:17.150Z,3.30
2018-12-17T00:19:48.699Z,3.36
2018-12-17T00:22:19.588Z,3.34
2018-12-17T00:24:50.427Z,3.37
2018-12-17T00:27:21.520Z,3.38
2018-12-17T00:29:52.527Z,3.41
2018-12-17T00:32:23.405Z,3.43
2018-12-17T00:34:54.378Z,3.43
2018-12-17T00:37:25.042Z,3.43
2018-12-17T00:39:57.435Z,3.45
2018-12-17T00:42:28.340Z,3.44
2018-12-17T00:45:00.389Z,3.45
2018-12-17T00:47:31.505Z,3.46
2018-12-17T00:50:02.521Z,3.42
2018-12-17T00:52:33.429Z,3.40
2018-12-17T00:55:04.679Z,3.39
2018-12-17T00:57:35.541Z,3.36
2018-12-17T01:00:09.403Z,3.35
2018-12-17T01:02:40.209Z,3.34
2018-12-17T01:05:10.874Z,3.35
2018-12-17T01:07:41.721Z,3.36
2018-12-17T01:10:12.664Z,3.34
2018-12-17T01:12:43.860Z,3.38
2018-12-17T01:15:14.543Z,3.36
2018-12-17T01:17:45.396Z,3.39
2018-12-17T01:20:16.621Z,3.37
2018-12-17T01:22:47.283Z,3.37
2018-12-17T01:25:18.110Z,3.39
2018-12-17T01:27:48.727Z,3.43
2018-12-17T01:30:19.375Z,3.45
2018-12-17T01:32:50.502Z,3.48
2018-12-17T01:35:21.379Z,3.49
2018-12-17T01:37:52.128Z,3.44
2018-12-17T01:40:22.873Z,3.40
2018-12-17T01:42:53.495Z,3.37
2018-12-17T01:45:24.249Z,3.38
2018-12-17T01:47:55.261Z,3.38
2018-12-17T01:50:26.197Z,3.36
2018-12-17T01:52:56.904Z,3.36
2018-12-17T01:55:30.597Z,3.39
2018-12-17T01:58:01.574Z,3.45
2018-12-17T02:00:32.538Z,3.42
2018-12-17T02:03:03.394Z,3.41
2018-12-17T02:05:34.003Z,3.43
2018-12-17T02:08:04.644Z,3.42
2018-12-17T02:10:35.501Z,3.41
2018-12-17T02:13:06.442Z,3.46
2018-12-17T02:15:37.240Z,3.46
2018-12-17T02:18:08.123Z,3.40
2018-12-17T02:20:39.008Z,3.32
2018-12-17T02:23:09.763Z,3.28
2018-12-17T02:25:40.701Z,3.25
2018-12-17T02:28:11.383Z,3.27
2018-12-17T02:30:42.240Z,3.21
2018-12-17T02:33:13.041Z,3.20
2018-12-17T02:35:44.011Z,3.20
2018-12-17T02:38:14.830Z,3.17
2018-12-17T02:40:45.696Z,3.19
2018-12-17T02:43:16.434Z,3.22
2018-12-17T02:45:47.031Z,3.21
2018-12-17T02:48:17.687Z,3.20
2018-12-17T02:50:49.033Z,3.19
2018-12-17T02:53:19.925Z,3.16
2018-12-17T02:55:50.819Z,3.16
2018-12-17T02:58:21.549Z,3.17
2018-12-17T03:00:52.373Z,3.16
2018-12-17T03:03:23.292Z,3.17
2018-12-17T03:05:53.935Z,3.16
2018-12-17T03:08:24.838Z,3.19
2018-12-17T03:10:55.974Z,3.23
2018-12-17T03:13:26.779Z,3.28
2018-12-17T03:15:57.649Z,3.30
2018-12-17T03:18:29.061Z,3.36
2018-12-17T03:20:59.801Z,3.33
2018-12-17T03:23:31.347Z,3.31
2018-12-17T03:26:01.975Z,3.26
2018-12-17T03:28:33.556Z,3.33
2018-12-17T03:31:04.307Z,3.33
2018-12-17T03:33:35.158Z,3.32
2018-12-17T03:36:05.839Z,3.32
2018-12-17T03:38:36.565Z,3.33
2018-12-17T03:41:07.448Z,3.31
2018-12-17T03:43:38.284Z,3.35
2018-12-17T03:46:09.036Z,3.38
2018-12-17T03:48:39.991Z,3.35
2018-12-17T03:51:10.714Z,3.36
2018-12-17T03:53:42.391Z,3.31
2018-12-17T03:56:12.997Z,3.30
2018-12-17T03:58:43.904Z,3.27
2018-12-17T04:01:14.844Z,3.28
2018-12-17T04:03:45.672Z,3.30
2018-12-17T04:06:16.896Z,3.28
2018-12-17T04:08:47.754Z,3.31
2018-12-17T04:11:18.755Z,3.30
2018-12-17T04:13:49.535Z,3.28
2018-12-17T04:16:20.318Z,3.30
2018-12-17T04:18:51.297Z,3.34
2018-12-17T04:21:22.072Z,3.36
2018-12-17T04:23:52.852Z,3.43
2018-12-17T04:26:23.800Z,3.45
2018-12-17T04:28:54.539Z,3.47
2018-12-17T04:31:25.293Z,3.48
2018-12-17T04:33:56.148Z,3.50
2018-12-17T04:36:27.046Z,3.47
2018-12-17T04:38:57.781Z,3.45
2018-12-17T04:41:28.558Z,3.44
2018-12-17T04:43:59.321Z,3.47
2018-12-17T04:46:29.980Z,3.52
2018-12-17T04:49:01.016Z,3.49
2018-12-17T04:51:31.870Z,3.47
2018-12-17T04:54:02.746Z,3.44
2018-12-17T04:56:33.684Z,3.39
2018-12-17T04:59:04.478Z,3.36
2018-12-17T05:01:35.437Z,3.33
2018-12-17T05:04:06.327Z,3.32
2018-12-17T05:06:37.330Z,3.25
2018-12-17T05:09:09.936Z,3.22
2018-12-17T05:11:41.041Z,3.21
2018-12-17T05:14:11.705Z,3.18
2018-12-17T05:16:42.369Z,3.21
2018-12-17T05:19:13.333Z,3.21
2018-12-17T05:21:44.196Z,3.23
2018-12-17T05:24:17.821Z,3.27
2018-12-17T05:26:48.646Z,3.24
2018-12-17T05:29:21.734Z,3.30
2018-12-17T05:31:52.471Z,3.32
2018-12-17T05:34:23.344Z,3.38
2018-12-17T05:36:54.004Z,3.44
2018-12-17T05:39:24.817Z,3.48
2018-12-17T05:41:55.565Z,3.43
2018-12-17T05:44:26.257Z,3.41
2018-12-17T05:46:57.073Z,3.40
2018-12-17T05:49:28.001Z,3.37
2018-12-17T05:51:58.837Z,3.32
2018-12-17T05:54:29.646Z,3.30
2018-12-17T05:57:00.606Z,3.28
2018-12-17T05:59:31.565Z,3.26
2018-12-17T06:02:02.767Z,3.30
2018-12-17T06:04:33.578Z,3.26
2018-12-17T06:07:04.851Z,3.27
2018-12-17T06:09:35.933Z,3.25
2018-12-17T06:12:06.559Z,3.25
2018-12-17T06:14:37.381Z,3.26
2018-12-17T06:17:08.204Z,3.28
2018-12-17T06:19:38.999Z,3.23
2018-12-17T06:22:10.903Z,3.31
2018-12-17T06:24:42.817Z,3.33
2018-12-17T06:27:13.613Z,3.38
2018-12-17T06:29:44.619Z,3.40
2018-12-17T06:32:15.340Z,3.42
2018-12-17T06:34:47.205Z,3.36
2018-12-17T06:37:18.004Z,3.29
2018-12-17T06:39:49.961Z,3.31
2018-12-17T06:42:20.823Z,3.36
2018-12-17T06:44:51.844Z,3.39
2018-12-17T06:47:22.675Z,3.32
2018-12-17T06:49:53.219Z,3.34
2018-12-17T06:52:23.873Z,3.35
2018-12-17T06:54:55.141Z,3.33
2018-12-17T06:57:27.003Z,3.36
2018-12-17T06:59:57.809Z,3.31
2018-12-17T07:02:28.785Z,3.38
2018-12-17T07:04:59.784Z,3.38
2018-12-17T07:07:30.870Z,3.42
2018-12-17T07:10:01.836Z,3.46
2018-12-17T07:12:32.597Z,3.56
2018-12-17T07:15:03.383Z,3.50
2018-12-17T07:17:34.117Z,3.48
2018-12-17T07:20:05.169Z,3.56
2018-12-17T07:22:36.189Z,3.57
2018-12-17T07:25:07.043Z,3.56
2018-12-17T07:27:37.791Z,3.58
2018-12-17T07:30:09.291Z,3.62
2018-12-17T07:32:40.287Z,3.65
2018-12-17T07:35:11.084Z,3.70
2018-12-17T07:37:42.098Z,3.80
2018-12-17T07:40:13.148Z,3.83
2018-12-17T07:42:43.955Z,3.84
2018-12-17T07:45:14.785Z,3.78
2018-12-17T07:47:45.505Z,3.88
2018-12-17T07:50:16.346Z,3.80
2018-12-17T07:52:47.242Z,3.83
2018-12-17T07:55:18.053Z,3.80
2018-12-17T07:57:48.906Z,3.77
2018-12-17T08:00:20.328Z,3.79
2018-12-17T08:02:51.360Z,3.76
2018-12-17T08:05:22.064Z,3.81
2018-12-17T08:07:53.038Z,3.82
2018-12-17T08:10:23.996Z,3.81
2018-12-17T08:12:54.884Z,3.79
2018-12-17T08:15:25.759Z,3.82
2018-12-17T08:18:12.951Z,3.85
2018-12-17T08:20:44.217Z,3.86
2018-12-17T08:23:15.340Z,3.96
2018-12-17T08:25:46.855Z,3.96
2018-12-17T08:28:18.462Z,4.01
2018-12-17T08:30:49.439Z,3.94
2018-12-17T08:33:20.870Z,4.02
2018-12-17T08:35:53.197Z,3.93
2018-12-17T08:38:24.468Z,3.91
2018-12-17T08:40:55.869Z,3.95
2018-12-17T08:43:27.231Z,3.84
2018-12-17T08:45:58.269Z,3.79
2018-12-17T08:48:29.240Z,3.76
2018-12-17T08:51:00.386Z,3.69
2018-12-17T08:53:31.584Z,3.69
2018-12-17T08:56:03.387Z,3.60
2018-12-17T08:58:34.641Z,3.56
2018-12-17T09:01:05.965Z,3.48
2018-12-17T09:03:37.708Z,3.54
2018-12-17T09:06:09.074Z,3.54
2018-12-17T09:08:40.087Z,3.55
2018-12-17T09:11:10.993Z,3.50
2018-12-17T09:13:41.781Z,3.53
2018-12-17T09:16:12.554Z,3.59
2018-12-17T09:18:43.491Z,3.60
2018-12-17T09:21:14.577Z,3.65
2018-12-17T09:23:45.656Z,3.72
2018-12-17T09:26:16.522Z,3.67
2018-12-17T09:28:47.363Z,3.67
2018-12-17T09:31:18.328Z,3.68
2018-12-17T09:33:49.181Z,3.69
2018-12-17T09:36:20.182Z,3.71
2018-12-17T09:38:52.470Z,3.72
2018-12-17T09:41:23.214Z,3.72
2018-12-17T09:43:54.893Z,3.72
2018-12-17T09:46:25.986Z,3.69
2018-12-17T09:48:56.753Z,3.68
2018-12-17T09:51:27.701Z,3.72
2018-12-17T09:53:58.966Z,3.68
2018-12-17T09:56:30.324Z,3.69
2018-12-17T09:59:01.693Z,3.67
2018-12-17T10:01:32.636Z,3.66
2018-12-17T10:04:03.537Z,3.73
2018-12-17T10:06:34.410Z,3.78
2018-12-17T10:09:06.630Z,3.79
2018-12-17T10:11:37.503Z,3.81
2018-12-17T10:14:08.674Z,3.82
2018-12-17T10:16:41.064Z,3.82
2018-12-17T10:19:12.667Z,3.87
2018-12-17T10:21:43.526Z,3.86
2018-12-17T10:24:14.453Z,3.90
2018-12-17T10:26:45.665Z,3.88
2018-12-17T10:29:16.849Z,3.93
2018-12-17T10:31:48.211Z,3.90
2018-12-17T10:34:19.346Z,3.88
2018-12-17T10:36:50.520Z,3.89
2018-12-17T10:39:21.713Z,3.95
2018-12-17T10:41:53.174Z,4.02
2018-12-17T10:44:24.267Z,4.00
2018-12-17T10:46:55.866Z,4.01
2018-12-17T10:49:27.031Z,4.03
2018-12-17T10:51:58.015Z,3.99
2018-12-17T10:54:29.217Z,4.00
2018-12-17T10:57:00.077Z,4.00
2018-12-17T10:59:31.321Z,4.03
2018-12-17T11:02:18.488Z,4.07
2018-12-17T11:04:54.924Z,3.99
2018-12-17T11:07:25.670Z,4.00
2018-12-17T11:09:56.633Z,4.04
2018-12-17T11:12:27.739Z,4.04
2018-12-17T11:14:59.364Z,4.05
2018-12-17T11:17:30.634Z,4.07
2018-12-17T11:20:01.319Z,4.11
2018-12-17T11:22:32.337Z,4.23
2018-12-17T11:25:03.498Z,4.24
2018-12-17T11:27:34.551Z,4.29
2018-12-17T11:30:08.452Z,4.28
2018-12-17T11:32:44.224Z,4.31
2018-12-17T11:35:15.402Z,4.34
2018-12-17T11:37:46.436Z,4.40
2018-12-17T11:40:17.561Z,4.31
2018-12-17T11:42:49.732Z,4.31
2018-12-17T11:45:21.142Z,4.28
2018-12-17T11:47:52.943Z,4.32
2018-12-17T11:50:24.791Z,4.33
2018-12-17T11:52:55.914Z,4.32
2018-12-17T11:55:27.377Z,4.40
2018-12-17T11:58:19.236Z,4.40
2018-12-17T12:01:09.952Z,4.46
2018-12-17T12:03:43.395Z,4.49
2018-12-17T12:06:14.581Z,4.52
2018-12-17T12:08:45.655Z,4.53
2018-12-17T12:11:17.170Z,4.56
2018-12-17T12:13:48.562Z,4.66
2018-12-17T12:16:19.734Z,4.62
2018-12-17T12:18:50.998Z,4.64
2018-12-17T12:21:23.151Z,4.67
2018-12-17T12:23:54.744Z,4.72
2018-12-17T12:26:26.185Z,4.67
2018-12-17T12:28:57.280Z,4.69
2018-12-17T12:31:29.038Z,4.74
2018-12-17T12:33:59.985Z,4.73
2018-12-17T12:36:31.372Z,4.76
2018-12-17T12:39:02.700Z,4.80
2018-12-17T12:41:33.886Z,4.84
2018-12-17T12:44:08.843Z,4.89
2018-12-17T12:46:38.122Z,5.01
2018-12-17T12:49:09.352Z,5.10
2018-12-17T12:51:40.291Z,5.38
2018-12-17T12:54:11.542Z,5.57
2018-12-17T12:56:43.451Z,5.67
2018-12-17T12:59:14.593Z,5.82
2018-12-17T13:01:45.814Z,5.88
2018-12-17T13:04:16.896Z,6.04
2018-12-17T13:06:47.797Z,6.09
2018-12-17T13:09:20.990Z,6.32
2018-12-17T13:11:52.105Z,6.50
2018-12-17T13:14:23.163Z,6.55
2018-12-17T13:16:54.508Z,6.48
2018-12-17T13:19:25.679Z,6.40
2018-12-17T13:21:57.073Z,6.40
2018-12-17T13:24:28.223Z,6.32
2018-12-17T13:26:59.378Z,6.57
2018-12-17T13:29:30.960Z,6.80
2018-12-17T13:32:02.082Z,7.19
2018-12-17T13:34:33.605Z,7.29
2018-12-17T13:37:04.786Z,6.99
2018-12-17T13:39:36.092Z,6.82
2018-12-17T13:42:07.289Z,6.61
2018-12-17T13:44:38.695Z,6.49
2018-12-17T13:47:10.110Z,6.38
2018-12-17T13:49:41.247Z,6.28
2018-12-17T13:52:17.494Z,6.18
2018-12-17T13:54:48.345Z,5.90
2018-12-17T13:57:19.461Z,5.83
2018-12-17T13:59:50.481Z,5.73
2018-12-17T14:02:21.695Z,5.60
2018-12-17T14:04:52.694Z,5.55
2018-12-17T14:07:24.889Z,5.46
2018-12-17T14:11:08.517Z,5.37
2018-12-17T14:13:39.518Z,5.28
2018-12-17T14:16:16.366Z,5.19
2018-12-17T14:18:52.629Z,5.10
2018-12-17T14:21:28.989Z,5.10
2018-12-17T14:24:00.274Z,4.98
2018-12-17T14:26:32.721Z,4.89
2018-12-17T14:29:04.048Z,4.96
2018-12-17T14:31:35.332Z,4.83
2018-12-17T14:34:07.034Z,4.77
2018-12-17T14:36:37.931Z,4.73
2018-12-17T14:39:10.613Z,4.61
2018-12-17T14:41:42.260Z,4.58
2018-12-17T14:44:18.821Z,4.51
2018-12-17T14:47:05.237Z,4.46
2018-12-17T14:49:36.171Z,4.44
2018-12-17T14:52:07.675Z,4.42
2018-12-17T14:54:38.557Z,4.30
2018-12-17T14:57:10.234Z,4.32
2018-12-17T14:59:41.692Z,4.33
2018-12-17T15:02:13.113Z,4.28
2018-12-17T15:04:44.479Z,4.26
2018-12-17T15:07:15.688Z,4.21
2018-12-17T15:09:46.916Z,4.17
2018-12-17T15:12:17.949Z,4.17
2018-12-17T15:14:49.173Z,4.16
2018-12-17T15:17:20.857Z,4.15
2018-12-17T15:19:52.407Z,4.09
2018-12-17T15:22:23.737Z,4.08
2018-12-17T15:24:54.943Z,4.07
2018-12-17T15:27:25.952Z,4.07
2018-12-17T15:29:57.110Z,4.08
2018-12-17T15:32:28.085Z,4.08
2018-12-17T15:34:59.469Z,4.04
2018-12-17T15:37:30.640Z,4.09
2018-12-17T15:40:02.656Z,4.07
2018-12-17T15:42:40.614Z,3.99
2018-12-17T15:45:08.987Z,4.00
2018-12-17T15:47:40.319Z,4.03
2018-12-17T15:50:12.655Z,4.02
2018-12-17T15:52:44.126Z,4.08
2018-12-17T15:55:16.292Z,4.03
2018-12-17T15:57:47.883Z,4.00
2018-12-17T16:00:18.908Z,4.03
2018-12-17T16:02:51.039Z,4.11
2018-12-17T16:05:23.262Z,4.05
2018-12-17T16:07:54.856Z,4.01
2018-12-17T16:10:26.184Z,3.93
2018-12-17T16:12:57.614Z,4.02
2018-12-17T16:15:28.849Z,3.97
2018-12-17T16:17:59.616Z,3.95
2018-12-17T16:20:30.721Z,3.98
2018-12-17T16:23:01.618Z,3.96
2018-12-17T16:25:33.021Z,3.86
2018-12-17T16:28:04.247Z,3.91
2018-12-17T16:30:36.229Z,3.96
2018-12-17T16:33:07.818Z,3.98
2018-12-17T16:35:39.233Z,3.91
2018-12-17T16:38:10.301Z,3.88
2018-12-17T16:40:41.301Z,3.87
2018-12-17T16:43:12.344Z,4.01
2018-12-17T16:45:43.346Z,4.01
2018-12-17T16:48:14.281Z,4.02
2018-12-17T16:50:45.392Z,4.01
2018-12-17T16:53:16.485Z,4.02
2018-12-17T16:55:49.066Z,3.95
2018-12-17T16:58:21.372Z,4.08
2018-12-17T17:00:52.613Z,4.16
2018-12-17T17:03:23.587Z,4.22
2018-12-17T17:05:55.602Z,4.19
2018-12-17T17:08:26.797Z,4.12
2018-12-17T17:10:57.982Z,4.09
2018-12-17T17:13:29.147Z,4.11
2018-12-17T17:16:00.751Z,4.02
2018-12-17T17:18:31.805Z,3.95
2018-12-17T17:21:03.515Z,3.99
2018-12-17T17:23:35.489Z,3.85
2018-12-17T17:26:06.671Z,3.84
2018-12-17T17:28:38.827Z,3.84
2018-12-17T17:31:10.518Z,3.80
2018-12-17T17:33:43.335Z,3.99
2018-12-17T17:36:15.059Z,3.95
2018-12-17T17:38:46.601Z,3.95
2018-12-17T17:41:17.684Z,3.99
2018-12-17T17:43:49.677Z,3.93
2018-12-17T17:46:20.911Z,3.84
2018-12-17T17:48:52.148Z,3.85
2018-12-17T17:51:23.465Z,3.74
2018-12-17T17:53:54.694Z,3.71
2018-12-17T17:56:26.323Z,3.57
2018-12-17T17:58:58.389Z,3.47
2018-12-17T18:01:30.163Z,3.56
2018-12-17T18:04:01.564Z,3.45
2018-12-17T18:06:33.720Z,3.54
2018-12-17T18:09:07.556Z,3.49
2018-12-17T18:11:39.740Z,3.38
2018-12-17T18:14:11.641Z,3.35
2018-12-17T18:16:42.707Z,3.33
2018-12-17T18:19:14.887Z,3.24
2018-12-17T18:21:46.447Z,3.30
2018-12-17T18:24:18.092Z,3.37
2018-12-17T18:26:49.283Z,3.30
2018-12-17T18:29:20.113Z,3.28
2018-12-17T18:31:50.926Z,3.31
2018-12-17T18:34:21.884Z,3.26
2018-12-17T18:36:52.889Z,3.31
2018-12-17T18:39:24.215Z,3.32
2018-12-17T18:41:55.514Z,3.30
2018-12-17T18:44:26.603Z,3.23
2018-12-17T18:46:57.918Z,3.12
2018-12-17T18:49:28.909Z,3.06
2018-12-17T18:52:00.008Z,2.89
2018-12-17T18:54:30.937Z,2.81
2018-12-17T18:57:02.180Z,2.89
2018-12-17T18:59:33.108Z,2.88
2018-12-17T19:02:04.112Z,2.83
2018-12-17T19:04:35.064Z,2.87
2018-12-17T19:07:06.024Z,2.90
2018-12-17T19:09:37.031Z,2.87
2018-12-17T19:12:08.338Z,2.97
2018-12-17T19:14:39.244Z,3.00
2018-12-17T19:17:10.896Z,2.96
2018-12-17T19:19:42.087Z,2.88
2018-12-17T19:22:13.624Z,2.69
2018-12-17T19:24:45.060Z,2.54
2018-12-17T19:27:16.134Z,2.33
2018-12-17T19:29:48.403Z,2.18
2018-12-17T19:32:19.872Z,1.99
2018-12-17T19:34:50.670Z,1.83
2018-12-17T19:37:22.435Z,1.66
2018-12-17T19:39:53.589Z,1.51
2018-12-17T19:42:24.915Z,1.40
2018-12-17T19:44:56.359Z,1.33
2018-12-17T19:47:27.613Z,1.52
2018-12-17T19:49:59.157Z,1.60
2018-12-17T19:52:31.368Z,1.68
2018-12-17T19:55:03.166Z,1.87
2018-12-17T19:57:34.186Z,2.02
2018-12-17T20:00:05.740Z,2.05
2018-12-17T20:02:36.777Z,2.12
2018-12-17T20:05:08.068Z,2.30
2018-12-17T20:07:39.075Z,2.42
2018-12-17T20:10:14.840Z,2.57
2018-12-17T20:12:46.025Z,2.51
2018-12-17T20:15:17.200Z,2.59
2018-12-17T20:17:48.839Z,2.70
2018-12-17T20:20:20.933Z,2.69
2018-12-17T20:22:52.327Z,2.84
2018-12-17T20:25:25.916Z,2.77
2018-12-17T20:27:58.559Z,2.80
2018-12-17T20:30:31.066Z,2.73
2018-12-17T20:33:03.636Z,2.69
2018-12-17T20:35:37.991Z,2.68
2018-12-17T20:38:12.076Z,2.59
2018-12-17T20:40:49.718Z,2.49
2018-12-17T20:43:22.495Z,2.53
2018-12-17T20:45:54.511Z,2.56
2018-12-17T20:48:27.555Z,2.67
2018-12-17T20:51:00.016Z,2.90
2018-12-17T20:53:32.269Z,3.03
2018-12-17T20:56:05.517Z,3.23
2018-12-17T20:58:37.773Z,3.33
2018-12-17T21:01:13.225Z,3.22
2018-12-17T21:03:45.154Z,3.16
2018-12-17T21:06:18.042Z,3.30
2018-12-17T21:08:50.011Z,3.21
2018-12-17T21:11:25.387Z,3.15
2018-12-17T21:13:57.402Z,3.12
2018-12-17T21:16:32.062Z,3.15
2018-12-17T21:19:04.097Z,3.22
2018-12-17T21:21:39.497Z,3.02
2018-12-17T21:24:15.511Z,2.92
2018-12-17T21:26:49.915Z,2.79
2018-12-17T21:29:21.455Z,2.61
2018-12-17T21:31:54.172Z,2.61
2018-12-17T21:34:26.774Z,2.81
2018-12-17T21:37:00.049Z,2.93
2018-12-17T21:39:32.562Z,2.97
2018-12-17T21:42:06.778Z,3.04
2018-12-17T21:44:38.412Z,2.99
2018-12-17T21:47:11.338Z,3.00
2018-12-17T21:49:44.074Z,2.85
2018-12-17T21:52:16.371Z,2.90
2018-12-17T21:54:48.228Z,2.76
2018-12-17T21:57:19.346Z,2.65
2018-12-17T21:59:50.277Z,2.63
2018-12-17T22:02:21.434Z,2.59
2018-12-17T22:04:52.520Z,2.57
2018-12-17T22:07:23.736Z,2.60
2018-12-17T22:09:55.193Z,2.68
2018-12-17T22:12:27.465Z,2.71
2018-12-17T22:14:58.968Z,2.83
2018-12-17T22:17:30.324Z,2.80
2018-12-17T22:20:02.133Z,2.65
2018-12-17T22:22:34.714Z,2.43
2018-12-17T22:25:06.159Z,2.23
2018-12-17T22:27:37.825Z,2.10
2018-12-17T22:30:09.016Z,1.97
2018-12-17T22:32:40.304Z,1.86
2018-12-17T22:35:11.375Z,1.82
2018-12-17T22:37:42.589Z,1.80
2018-12-17T22:40:13.423Z,1.73
2018-12-17T22:42:45.684Z,1.66
2018-12-17T22:45:18.956Z,1.66
2018-12-17T22:47:50.107Z,1.56
2018-12-17T22:50:22.439Z,1.46
2018-12-17T22:52:53.693Z,1.45
2018-12-17T22:55:25.177Z,1.48
2018-12-17T22:57:56.434Z,1.47
2018-12-17T23:00:28.433Z,1.42
2018-12-17T23:02:59.735Z,1.39
2018-12-17T23:05:31.291Z,1.36
2018-12-17T23:08:02.279Z,1.34
2018-12-17T23:10:50.559Z,1.32
2018-12-17T23:13:37.983Z,1.29
2018-12-17T23:16:25.241Z,1.30
2018-12-17T23:18:53.742Z,1.29
2018-12-17T23:21:25.400Z,1.35
2018-12-17T23:23:56.633Z,1.34
2018-12-17T23:26:27.573Z,1.42
2018-12-17T23:28:58.972Z,1.39
2018-12-17T23:31:30.025Z,1.29
2018-12-17T23:34:00.816Z,1.22
2018-12-17T23:36:31.857Z,1.20
2018-12-17T23:39:02.963Z,1.15
2018-12-17T23:41:34.298Z,1.09
2018-12-17T23:44:05.216Z,1.15
2018-12-17T23:46:37.050Z,1.18
2018-12-17T23:49:07.750Z,1.12
2018-12-17T23:51:38.936Z,1.11
2018-12-17T23:54:09.899Z,1.10
2018-12-17T23:56:40.861Z,1.09
2018-12-17T23:59:11.979Z,1.15
